sensor_id;sensor_type;location;lat;lon;timestamp;temperature;humidity
15713;DHT22;7957;51.608;6.916;2023-04-24T00:01:34;12.10;99.90
15713;DHT22;7957;51.608;6.916;2023-04-24T00:04:02;12.10;99.90
15713;DHT22;7957;51.608;6.916;2023-04-24T00:06:29;12.10;99.90
15713;DHT22;7957;51.608;6.916;2023-04-24T00:08:59;12.10;99.90
15713;DHT22;7957;51.608;6.916;2023-04-24T00:11:28;12.10;99.90
15713;DHT22;7957;51.608;6.916;2023-04-24T00:13:55;12.10;99.90
15713;DHT22;7957;51.608;6.916;2023-04-24T00:16:23;12.00;99.90
15713;DHT22;7957;51.608;6.916;2023-04-24T00:18:50;12.00;99.90
15713;DHT22;7957;51.608;6.916;2023-04-24T00:21:18;12.00;99.90
15713;DHT22;7957;51.608;6.916;2023-04-24T00:23:46;12.00;90.10
15713;DHT22;7957;51.608;6.916;2023-04-24T00:26:13;11.90;20.30
15713;DHT22;7957;51.608;6.916;2023-04-24T00:28:42;11.90;1.00
15713;DHT22;7957;51.608;6.916;2023-04-24T00:31:09;11.90;1.00
15713;DHT22;7957;51.608;6.916;2023-04-24T00:33:36;11.90;1.00
15713;DHT22;7957;51.608;6.916;2023-04-24T00:36:03;11.90;1.00
15713;DHT22;7957;51.608;6.916;2023-04-24T00:38:44;11.90;1.00
15713;DHT22;7957;51.608;6.916;2023-04-24T00:41:11;11.90;1.00
15713;DHT22;7957;51.608;6.916;2023-04-24T00:43:39;11.90;1.00
15713;DHT22;7957;51.608;6.916;2023-04-24T00:46:08;11.90;1.00
15713;DHT22;7957;51.608;6.916;2023-04-24T00:48:37;11.90;1.00
15713;DHT22;7957;51.608;6.916;2023-04-24T00:51:05;11.90;1.00
15713;DHT22;7957;51.608;6.916;2023-04-24T00:53:32;11.90;1.00
15713;DHT22;7957;51.608;6.916;2023-04-24T00:56:00;11.90;1.00
15713;DHT22;7957;51.608;6.916;2023-04-24T00:58:27;11.80;1.00
15713;DHT22;7957;51.608;6.916;2023-04-24T01:00:56;11.80;1.00
15713;DHT22;7957;51.608;6.916;2023-04-24T01:03:29;11.80;1.00
15713;DHT22;7957;51.608;6.916;2023-04-24T01:05:57;11.80;1.00
15713;DHT22;7957;51.608;6.916;2023-04-24T01:08:25;11.80;1.00
15713;DHT22;7957;51.608;6.916;2023-04-24T01:10:53;11.70;1.00
15713;DHT22;7957;51.608;6.916;2023-04-24T01:13:21;11.70;1.00
15713;DHT22;7957;51.608;6.916;2023-04-24T01:15:48;11.70;1.00
15713;DHT22;7957;51.608;6.916;2023-04-24T01:18:15;11.70;1.00
15713;DHT22;7957;51.608;6.916;2023-04-24T01:20:45;11.70;1.00
15713;DHT22;7957;51.608;6.916;2023-04-24T01:23:14;11.70;1.00
15713;DHT22;7957;51.608;6.916;2023-04-24T01:25:41;11.60;1.00
15713;DHT22;7957;51.608;6.916;2023-04-24T01:28:09;11.60;1.00
15713;DHT22;7957;51.608;6.916;2023-04-24T01:30:36;11.60;1.00
15713;DHT22;7957;51.608;6.916;2023-04-24T01:33:03;11.60;1.00
15713;DHT22;7957;51.608;6.916;2023-04-24T01:35:31;11.60;1.00
15713;DHT22;7957;51.608;6.916;2023-04-24T01:37:58;11.60;1.00
15713;DHT22;7957;51.608;6.916;2023-04-24T01:40:27;11.60;1.00
15713;DHT22;7957;51.608;6.916;2023-04-24T01:42:54;11.60;1.00
15713;DHT22;7957;51.608;6.916;2023-04-24T01:45:21;11.60;1.00
15713;DHT22;7957;51.608;6.916;2023-04-24T01:47:49;11.50;1.00
15713;DHT22;7957;51.608;6.916;2023-04-24T01:50:16;11.50;1.00
15713;DHT22;7957;51.608;6.916;2023-04-24T01:52:44;11.50;1.00
15713;DHT22;7957;51.608;6.916;2023-04-24T01:55:11;11.50;1.00
15713;DHT22;7957;51.608;6.916;2023-04-24T01:57:39;11.50;1.00
15713;DHT22;7957;51.608;6.916;2023-04-24T02:00:07;11.50;1.00
15713;DHT22;7957;51.608;6.916;2023-04-24T02:02:36;11.50;1.00
15713;DHT22;7957;51.608;6.916;2023-04-24T02:05:06;11.40;1.00
15713;DHT22;7957;51.608;6.916;2023-04-24T02:07:33;11.40;1.00
15713;DHT22;7957;51.608;6.916;2023-04-24T02:10:00;11.40;1.00
15713;DHT22;7957;51.608;6.916;2023-04-24T02:12:27;11.40;1.00
15713;DHT22;7957;51.608;6.916;2023-04-24T02:14:56;11.40;1.00
15713;DHT22;7957;51.608;6.916;2023-04-24T02:17:23;11.40;1.00
15713;DHT22;7957;51.608;6.916;2023-04-24T02:19:50;11.40;1.00
15713;DHT22;7957;51.608;6.916;2023-04-24T02:22:17;11.40;1.00
15713;DHT22;7957;51.608;6.916;2023-04-24T02:24:45;11.40;1.00
15713;DHT22;7957;51.608;6.916;2023-04-24T02:27:11;11.40;6.50
15713;DHT22;7957;51.608;6.916;2023-04-24T02:29:38;11.40;15.10
15713;DHT22;7957;51.608;6.916;2023-04-24T02:32:07;11.40;28.50
15713;DHT22;7957;51.608;6.916;2023-04-24T02:34:37;11.40;40.00
15713;DHT22;7957;51.608;6.916;2023-04-24T02:37:04;11.30;45.90
15713;DHT22;7957;51.608;6.916;2023-04-24T02:39:31;11.30;66.90
15713;DHT22;7957;51.608;6.916;2023-04-24T02:41:58;11.30;97.20
15713;DHT22;7957;51.608;6.916;2023-04-24T02:44:25;11.30;99.90
15713;DHT22;7957;51.608;6.916;2023-04-24T02:46:52;11.30;99.90
15713;DHT22;7957;51.608;6.916;2023-04-24T02:49:21;11.30;99.90
15713;DHT22;7957;51.608;6.916;2023-04-24T02:51:48;11.30;99.90
15713;DHT22;7957;51.608;6.916;2023-04-24T02:54:15;11.30;99.90
15713;DHT22;7957;51.608;6.916;2023-04-24T02:56:42;11.30;99.90
15713;DHT22;7957;51.608;6.916;2023-04-24T02:59:09;11.30;99.90
15713;DHT22;7957;51.608;6.916;2023-04-24T03:01:36;11.30;99.90
15713;DHT22;7957;51.608;6.916;2023-04-24T03:04:03;11.30;99.90
15713;DHT22;7957;51.608;6.916;2023-04-24T03:06:32;11.20;99.90
15713;DHT22;7957;51.608;6.916;2023-04-24T03:09:01;11.20;99.90
15713;DHT22;7957;51.608;6.916;2023-04-24T03:11:28;11.20;99.90
15713;DHT22;7957;51.608;6.916;2023-04-24T03:13:56;11.30;99.90
15713;DHT22;7957;51.608;6.916;2023-04-24T03:16:22;11.20;99.90
15713;DHT22;7957;51.608;6.916;2023-04-24T03:18:49;11.20;99.90
15713;DHT22;7957;51.608;6.916;2023-04-24T03:21:17;11.20;99.90
15713;DHT22;7957;51.608;6.916;2023-04-24T03:23:46;11.20;99.90
15713;DHT22;7957;51.608;6.916;2023-04-24T03:26:13;11.20;99.90
15713;DHT22;7957;51.608;6.916;2023-04-24T03:28:40;11.20;99.90
15713;DHT22;7957;51.608;6.916;2023-04-24T03:31:07;11.20;99.90
15713;DHT22;7957;51.608;6.916;2023-04-24T03:33:34;11.20;99.90
15713;DHT22;7957;51.608;6.916;2023-04-24T03:36:02;11.20;99.90
15713;DHT22;7957;51.608;6.916;2023-04-24T03:38:29;11.20;99.90
15713;DHT22;7957;51.608;6.916;2023-04-24T03:40:58;11.20;99.90
15713;DHT22;7957;51.608;6.916;2023-04-24T03:43:25;11.10;99.90
15713;DHT22;7957;51.608;6.916;2023-04-24T03:45:52;11.10;99.90
15713;DHT22;7957;51.608;6.916;2023-04-24T03:48:19;11.10;99.90
15713;DHT22;7957;51.608;6.916;2023-04-24T03:50:46;11.10;99.90
15713;DHT22;7957;51.608;6.916;2023-04-24T03:53:13;11.10;1.00
15713;DHT22;7957;51.608;6.916;2023-04-24T03:55:41;11.10;1.00
15713;DHT22;7957;51.608;6.916;2023-04-24T03:58:10;11.10;1.00
15713;DHT22;7957;51.608;6.916;2023-04-24T04:00:40;11.10;1.00
15713;DHT22;7957;51.608;6.916;2023-04-24T04:03:07;11.10;1.00
15713;DHT22;7957;51.608;6.916;2023-04-24T04:05:34;11.10;1.00
15713;DHT22;7957;51.608;6.916;2023-04-24T04:08:01;11.10;1.00
15713;DHT22;7957;51.608;6.916;2023-04-24T04:10:28;11.10;1.00
15713;DHT22;7957;51.608;6.916;2023-04-24T04:12:55;11.10;1.00
15713;DHT22;7957;51.608;6.916;2023-04-24T04:15:24;11.10;1.00
15713;DHT22;7957;51.608;6.916;2023-04-24T04:17:51;11.00;1.00
15713;DHT22;7957;51.608;6.916;2023-04-24T04:20:18;11.10;1.00
15713;DHT22;7957;51.608;6.916;2023-04-24T04:22:45;11.00;1.00
15713;DHT22;7957;51.608;6.916;2023-04-24T04:25:12;11.00;1.00
15713;DHT22;7957;51.608;6.916;2023-04-24T04:27:39;11.10;1.00
15713;DHT22;7957;51.608;6.916;2023-04-24T04:30:07;11.00;1.00
15713;DHT22;7957;51.608;6.916;2023-04-24T04:32:36;11.10;1.00
15713;DHT22;7957;51.608;6.916;2023-04-24T04:35:04;11.00;1.00
15713;DHT22;7957;51.608;6.916;2023-04-24T04:37:32;11.00;1.00
15713;DHT22;7957;51.608;6.916;2023-04-24T04:39:59;11.00;1.00
15713;DHT22;7957;51.608;6.916;2023-04-24T04:42:27;11.00;1.00
15713;DHT22;7957;51.608;6.916;2023-04-24T04:44:54;11.00;1.00
15713;DHT22;7957;51.608;6.916;2023-04-24T04:47:27;11.00;1.00
15713;DHT22;7957;51.608;6.916;2023-04-24T04:49:58;11.00;1.00
15713;DHT22;7957;51.608;6.916;2023-04-24T04:52:26;11.00;1.00
15713;DHT22;7957;51.608;6.916;2023-04-24T04:54:53;11.00;1.00
15713;DHT22;7957;51.608;6.916;2023-04-24T04:57:20;11.00;1.00
15713;DHT22;7957;51.608;6.916;2023-04-24T04:59:49;11.00;1.00
15713;DHT22;7957;51.608;6.916;2023-04-24T05:02:16;11.00;1.00
15713;DHT22;7957;51.608;6.916;2023-04-24T05:04:43;11.00;1.00
15713;DHT22;7957;51.608;6.916;2023-04-24T05:07:12;11.00;1.00
15713;DHT22;7957;51.608;6.916;2023-04-24T05:09:45;10.90;1.00
15713;DHT22;7957;51.608;6.916;2023-04-24T05:12:13;10.90;1.00
15713;DHT22;7957;51.608;6.916;2023-04-24T05:14:40;11.00;1.00
15713;DHT22;7957;51.608;6.916;2023-04-24T05:17:07;10.90;1.00
15713;DHT22;7957;51.608;6.916;2023-04-24T05:19:34;10.90;1.00
15713;DHT22;7957;51.608;6.916;2023-04-24T05:22:03;10.90;1.00
15713;DHT22;7957;51.608;6.916;2023-04-24T05:24:34;11.00;1.00
15713;DHT22;7957;51.608;6.916;2023-04-24T05:27:01;10.90;1.00
15713;DHT22;7957;51.608;6.916;2023-04-24T05:29:30;10.90;1.00
15713;DHT22;7957;51.608;6.916;2023-04-24T05:31:58;10.90;1.00
15713;DHT22;7957;51.608;6.916;2023-04-24T05:34:25;10.90;1.00
15713;DHT22;7957;51.608;6.916;2023-04-24T05:36:52;10.90;1.00
15713;DHT22;7957;51.608;6.916;2023-04-24T05:39:21;10.90;1.00
15713;DHT22;7957;51.608;6.916;2023-04-24T05:41:51;10.90;1.00
15713;DHT22;7957;51.608;6.916;2023-04-24T05:44:18;10.90;1.00
15713;DHT22;7957;51.608;6.916;2023-04-24T05:46:45;10.90;1.00
15713;DHT22;7957;51.608;6.916;2023-04-24T05:49:13;10.90;1.00
15713;DHT22;7957;51.608;6.916;2023-04-24T05:51:40;10.90;1.00
15713;DHT22;7957;51.608;6.916;2023-04-24T05:54:07;10.90;1.00
15713;DHT22;7957;51.608;6.916;2023-04-24T05:56:34;10.90;1.00
15713;DHT22;7957;51.608;6.916;2023-04-24T05:59:02;10.90;1.00
15713;DHT22;7957;51.608;6.916;2023-04-24T06:01:30;10.90;1.00
15713;DHT22;7957;51.608;6.916;2023-04-24T06:03:57;10.90;1.00
15713;DHT22;7957;51.608;6.916;2023-04-24T06:06:24;10.90;1.00
15713;DHT22;7957;51.608;6.916;2023-04-24T06:08:51;10.90;1.00
15713;DHT22;7957;51.608;6.916;2023-04-24T06:11:18;10.90;1.00
15713;DHT22;7957;51.608;6.916;2023-04-24T06:13:45;10.90;1.00
15713;DHT22;7957;51.608;6.916;2023-04-24T06:16:14;10.90;1.00
15713;DHT22;7957;51.608;6.916;2023-04-24T06:18:41;10.90;1.00
15713;DHT22;7957;51.608;6.916;2023-04-24T06:21:08;10.90;1.00
15713;DHT22;7957;51.608;6.916;2023-04-24T06:23:35;10.90;9.90
15713;DHT22;7957;51.608;6.916;2023-04-24T06:26:12;10.90;91.60
15713;DHT22;7957;51.608;6.916;2023-04-24T06:28:39;10.90;99.90
15713;DHT22;7957;51.608;6.916;2023-04-24T06:31:06;10.90;99.90
15713;DHT22;7957;51.608;6.916;2023-04-24T06:33:34;10.90;99.90
15713;DHT22;7957;51.608;6.916;2023-04-24T06:36:01;10.90;99.90
15713;DHT22;7957;51.608;6.916;2023-04-24T06:38:29;10.90;99.90
15713;DHT22;7957;51.608;6.916;2023-04-24T06:40:56;10.90;99.90
15713;DHT22;7957;51.608;6.916;2023-04-24T06:43:23;10.80;99.90
15713;DHT22;7957;51.608;6.916;2023-04-24T06:45:50;10.80;99.90
15713;DHT22;7957;51.608;6.916;2023-04-24T06:48:42;10.80;1.00
15713;DHT22;7957;51.608;6.916;2023-04-24T06:51:09;10.80;1.00
15713;DHT22;7957;51.608;6.916;2023-04-24T06:53:36;10.90;1.00
15713;DHT22;7957;51.608;6.916;2023-04-24T06:56:05;10.90;1.00
15713;DHT22;7957;51.608;6.916;2023-04-24T06:58:34;10.90;1.00
15713;DHT22;7957;51.608;6.916;2023-04-24T07:01:01;10.80;1.00
15713;DHT22;7957;51.608;6.916;2023-04-24T07:03:28;10.90;1.00
15713;DHT22;7957;51.608;6.916;2023-04-24T07:05:57;10.80;1.00
15713;DHT22;7957;51.608;6.916;2023-04-24T07:08:28;10.80;1.00
15713;DHT22;7957;51.608;6.916;2023-04-24T07:10:56;10.80;1.00
15713;DHT22;7957;51.608;6.916;2023-04-24T07:13:23;10.80;1.00
15713;DHT22;7957;51.608;6.916;2023-04-24T07:15:51;10.80;1.00
15713;DHT22;7957;51.608;6.916;2023-04-24T07:18:20;10.80;1.00
15713;DHT22;7957;51.608;6.916;2023-04-24T07:20:47;10.80;4.60
15713;DHT22;7957;51.608;6.916;2023-04-24T07:23:17;10.80;19.80
15713;DHT22;7957;51.608;6.916;2023-04-24T07:25:44;10.80;35.00
15713;DHT22;7957;51.608;6.916;2023-04-24T07:28:11;10.80;32.90
15713;DHT22;7957;51.608;6.916;2023-04-24T07:30:38;10.80;44.60
15713;DHT22;7957;51.608;6.916;2023-04-24T07:33:05;10.80;29.30
15713;DHT22;7957;51.608;6.916;2023-04-24T07:35:33;10.80;34.30
15713;DHT22;7957;51.608;6.916;2023-04-24T07:38:00;10.80;48.80
15713;DHT22;7957;51.608;6.916;2023-04-24T07:40:29;10.80;55.00
15713;DHT22;7957;51.608;6.916;2023-04-24T07:42:56;10.80;71.80
15713;DHT22;7957;51.608;6.916;2023-04-24T07:45:23;10.70;81.50
15713;DHT22;7957;51.608;6.916;2023-04-24T07:47:51;10.80;81.20
15713;DHT22;7957;51.608;6.916;2023-04-24T07:50:18;10.70;93.10
15713;DHT22;7957;51.608;6.916;2023-04-24T07:52:46;10.80;94.70
15713;DHT22;7957;51.608;6.916;2023-04-24T07:55:13;10.80;93.90
15713;DHT22;7957;51.608;6.916;2023-04-24T07:57:41;10.80;90.90
15713;DHT22;7957;51.608;6.916;2023-04-24T08:00:09;10.80;85.90
15713;DHT22;7957;51.608;6.916;2023-04-24T08:02:36;10.80;79.50
15713;DHT22;7957;51.608;6.916;2023-04-24T08:05:04;10.80;71.60
15713;DHT22;7957;51.608;6.916;2023-04-24T08:07:31;10.80;71.80
15713;DHT22;7957;51.608;6.916;2023-04-24T08:09:58;10.80;89.90
15713;DHT22;7957;51.608;6.916;2023-04-24T08:12:26;10.80;97.30
15713;DHT22;7957;51.608;6.916;2023-04-24T08:14:54;10.80;99.90
15713;DHT22;7957;51.608;6.916;2023-04-24T08:17:21;10.80;99.90
15713;DHT22;7957;51.608;6.916;2023-04-24T08:19:48;10.80;99.90
15713;DHT22;7957;51.608;6.916;2023-04-24T08:22:16;10.80;99.90
15713;DHT22;7957;51.608;6.916;2023-04-24T08:24:43;10.80;99.90
15713;DHT22;7957;51.608;6.916;2023-04-24T08:27:10;10.90;99.90
15713;DHT22;7957;51.608;6.916;2023-04-24T08:29:37;10.80;99.90
15713;DHT22;7957;51.608;6.916;2023-04-24T08:32:06;10.80;99.90
15713;DHT22;7957;51.608;6.916;2023-04-24T08:34:33;10.80;99.90
15713;DHT22;7957;51.608;6.916;2023-04-24T08:37:00;10.80;99.90
15713;DHT22;7957;51.608;6.916;2023-04-24T08:39:30;10.80;99.90
15713;DHT22;7957;51.608;6.916;2023-04-24T08:41:58;10.80;99.90
15713;DHT22;7957;51.608;6.916;2023-04-24T08:44:31;10.80;99.90
15713;DHT22;7957;51.608;6.916;2023-04-24T08:46:59;10.80;99.90
15713;DHT22;7957;51.608;6.916;2023-04-24T08:49:29;10.80;99.90
15713;DHT22;7957;51.608;6.916;2023-04-24T08:51:57;10.80;99.90
15713;DHT22;7957;51.608;6.916;2023-04-24T08:54:25;10.80;99.90
15713;DHT22;7957;51.608;6.916;2023-04-24T08:56:54;10.80;99.90
15713;DHT22;7957;51.608;6.916;2023-04-24T08:59:23;10.80;99.90
15713;DHT22;7957;51.608;6.916;2023-04-24T09:01:51;10.80;99.90
15713;DHT22;7957;51.608;6.916;2023-04-24T09:04:20;10.80;99.90
15713;DHT22;7957;51.608;6.916;2023-04-24T09:06:51;10.80;99.90
15713;DHT22;7957;51.608;6.916;2023-04-24T09:09:22;10.80;99.90
15713;DHT22;7957;51.608;6.916;2023-04-24T09:11:50;10.80;99.90
15713;DHT22;7957;51.608;6.916;2023-04-24T09:14:19;10.80;99.90
15713;DHT22;7957;51.608;6.916;2023-04-24T09:16:46;10.80;99.90
15713;DHT22;7957;51.608;6.916;2023-04-24T09:19:13;10.80;99.90
15713;DHT22;7957;51.608;6.916;2023-04-24T09:21:41;10.80;99.90
15713;DHT22;7957;51.608;6.916;2023-04-24T09:24:17;10.80;99.90
15713;DHT22;7957;51.608;6.916;2023-04-24T09:26:46;10.80;99.90
15713;DHT22;7957;51.608;6.916;2023-04-24T09:29:17;10.80;99.90
15713;DHT22;7957;51.608;6.916;2023-04-24T09:31:45;10.80;99.90
15713;DHT22;7957;51.608;6.916;2023-04-24T09:34:12;10.70;99.90
15713;DHT22;7957;51.608;6.916;2023-04-24T09:36:42;10.70;99.90
15713;DHT22;7957;51.608;6.916;2023-04-24T09:39:11;10.70;99.90
15713;DHT22;7957;51.608;6.916;2023-04-24T09:41:46;10.60;99.90
15713;DHT22;7957;51.608;6.916;2023-04-24T09:44:15;10.60;99.90
15713;DHT22;7957;51.608;6.916;2023-04-24T09:46:45;10.60;99.90
15713;DHT22;7957;51.608;6.916;2023-04-24T09:49:15;10.60;99.90
15713;DHT22;7957;51.608;6.916;2023-04-24T09:51:43;10.60;99.90
15713;DHT22;7957;51.608;6.916;2023-04-24T09:54:15;10.60;99.90
15713;DHT22;7957;51.608;6.916;2023-04-24T09:56:45;10.50;99.90
15713;DHT22;7957;51.608;6.916;2023-04-24T09:59:13;10.60;99.90
15713;DHT22;7957;51.608;6.916;2023-04-24T10:01:44;10.50;99.90
15713;DHT22;7957;51.608;6.916;2023-04-24T10:04:18;10.50;99.90
15713;DHT22;7957;51.608;6.916;2023-04-24T10:06:49;10.50;99.90
15713;DHT22;7957;51.608;6.916;2023-04-24T10:09:19;10.50;99.90
15713;DHT22;7957;51.608;6.916;2023-04-24T10:11:57;10.50;99.90
15713;DHT22;7957;51.608;6.916;2023-04-24T10:14:25;10.50;99.90
15713;DHT22;7957;51.608;6.916;2023-04-24T10:17:07;10.50;99.90
15713;DHT22;7957;51.608;6.916;2023-04-24T10:19:39;10.50;99.90
15713;DHT22;7957;51.608;6.916;2023-04-24T10:22:08;10.60;99.90
15713;DHT22;7957;51.608;6.916;2023-04-24T10:24:38;10.60;99.90
15713;DHT22;7957;51.608;6.916;2023-04-24T10:27:15;10.60;99.90
15713;DHT22;7957;51.608;6.916;2023-04-24T10:29:43;10.60;99.90
15713;DHT22;7957;51.608;6.916;2023-04-24T10:32:10;10.60;99.90
15713;DHT22;7957;51.608;6.916;2023-04-24T10:34:37;10.60;99.90
15713;DHT22;7957;51.608;6.916;2023-04-24T10:37:06;10.60;99.90
15713;DHT22;7957;51.608;6.916;2023-04-24T10:39:33;10.60;99.90
15713;DHT22;7957;51.608;6.916;2023-04-24T10:42:00;10.60;99.90
15713;DHT22;7957;51.608;6.916;2023-04-24T10:44:35;10.60;99.90
15713;DHT22;7957;51.608;6.916;2023-04-24T10:47:03;10.60;99.90
15713;DHT22;7957;51.608;6.916;2023-04-24T10:49:31;10.60;99.90
15713;DHT22;7957;51.608;6.916;2023-04-24T10:52:01;10.60;99.90
15713;DHT22;7957;51.608;6.916;2023-04-24T10:54:35;10.60;99.90
15713;DHT22;7957;51.608;6.916;2023-04-24T10:57:30;10.60;99.90
15713;DHT22;7957;51.608;6.916;2023-04-24T11:00:14;10.60;99.90
15713;DHT22;7957;51.608;6.916;2023-04-24T11:02:41;10.50;99.90
15713;DHT22;7957;51.608;6.916;2023-04-24T11:05:15;10.60;99.90
15713;DHT22;7957;51.608;6.916;2023-04-24T11:08:10;10.20;99.90
15713;DHT22;7957;51.608;6.916;2023-04-24T11:10:54;9.70;99.90
15713;DHT22;7957;51.608;6.916;2023-04-24T11:13:22;9.90;99.90
15713;DHT22;7957;51.608;6.916;2023-04-24T11:16:16;10.10;99.90
15713;DHT22;7957;51.608;6.916;2023-04-24T11:18:50;10.30;99.90
15713;DHT22;7957;51.608;6.916;2023-04-24T11:21:19;10.40;99.90
15713;DHT22;7957;51.608;6.916;2023-04-24T11:23:51;10.50;99.90
15713;DHT22;7957;51.608;6.916;2023-04-24T11:26:19;10.60;99.90
15713;DHT22;7957;51.608;6.916;2023-04-24T11:28:50;10.80;99.90
15713;DHT22;7957;51.608;6.916;2023-04-24T11:31:40;10.90;99.90
15713;DHT22;7957;51.608;6.916;2023-04-24T11:34:08;10.90;99.90
15713;DHT22;7957;51.608;6.916;2023-04-24T11:36:36;11.00;99.90
15713;DHT22;7957;51.608;6.916;2023-04-24T11:39:03;11.00;99.90
15713;DHT22;7957;51.608;6.916;2023-04-24T11:41:31;11.10;99.90
15713;DHT22;7957;51.608;6.916;2023-04-24T11:43:58;11.10;99.90
15713;DHT22;7957;51.608;6.916;2023-04-24T11:46:28;11.10;99.90
15713;DHT22;7957;51.608;6.916;2023-04-24T11:48:58;11.10;99.90
15713;DHT22;7957;51.608;6.916;2023-04-24T11:51:26;11.10;99.90
15713;DHT22;7957;51.608;6.916;2023-04-24T11:53:54;11.10;99.90
15713;DHT22;7957;51.608;6.916;2023-04-24T11:56:22;11.10;99.90
15713;DHT22;7957;51.608;6.916;2023-04-24T11:58:52;11.20;99.90
15713;DHT22;7957;51.608;6.916;2023-04-24T12:01:19;11.20;99.90
15713;DHT22;7957;51.608;6.916;2023-04-24T12:03:48;11.30;99.90
15713;DHT22;7957;51.608;6.916;2023-04-24T12:06:18;11.30;99.90
15713;DHT22;7957;51.608;6.916;2023-04-24T12:08:46;11.40;99.90
15713;DHT22;7957;51.608;6.916;2023-04-24T12:11:15;11.50;99.90
15713;DHT22;7957;51.608;6.916;2023-04-24T12:13:43;11.60;99.90
15713;DHT22;7957;51.608;6.916;2023-04-24T12:16:10;11.80;99.90
15713;DHT22;7957;51.608;6.916;2023-04-24T12:18:42;12.00;99.90
15713;DHT22;7957;51.608;6.916;2023-04-24T12:21:18;12.10;99.90
15713;DHT22;7957;51.608;6.916;2023-04-24T12:23:46;12.10;99.90
15713;DHT22;7957;51.608;6.916;2023-04-24T12:26:16;12.00;99.90
15713;DHT22;7957;51.608;6.916;2023-04-24T12:28:47;11.90;99.90
15713;DHT22;7957;51.608;6.916;2023-04-24T12:31:15;12.00;99.90
15713;DHT22;7957;51.608;6.916;2023-04-24T12:33:42;11.90;99.90
15713;DHT22;7957;51.608;6.916;2023-04-24T12:36:10;11.80;99.90
15713;DHT22;7957;51.608;6.916;2023-04-24T12:38:43;11.80;99.90
15713;DHT22;7957;51.608;6.916;2023-04-24T12:41:13;11.80;99.90
15713;DHT22;7957;51.608;6.916;2023-04-24T12:43:51;11.80;99.90
15713;DHT22;7957;51.608;6.916;2023-04-24T12:46:19;11.80;99.90
15713;DHT22;7957;51.608;6.916;2023-04-24T12:48:46;11.80;86.00
15713;DHT22;7957;51.608;6.916;2023-04-24T12:51:13;11.90;1.00
15713;DHT22;7957;51.608;6.916;2023-04-24T12:53:42;11.90;1.00
15713;DHT22;7957;51.608;6.916;2023-04-24T12:56:09;11.80;1.00
15713;DHT22;7957;51.608;6.916;2023-04-24T12:58:36;11.80;99.90
15713;DHT22;7957;51.608;6.916;2023-04-24T13:01:03;11.70;99.90
15713;DHT22;7957;51.608;6.916;2023-04-24T13:03:30;11.70;1.00
15713;DHT22;7957;51.608;6.916;2023-04-24T13:05:57;11.70;1.00
15713;DHT22;7957;51.608;6.916;2023-04-24T13:08:24;11.60;1.00
15713;DHT22;7957;51.608;6.916;2023-04-24T13:10:53;11.60;1.00
15713;DHT22;7957;51.608;6.916;2023-04-24T13:13:20;11.50;99.90
15713;DHT22;7957;51.608;6.916;2023-04-24T13:15:47;11.50;99.90
15713;DHT22;7957;51.608;6.916;2023-04-24T13:18:15;11.40;99.90
15713;DHT22;7957;51.608;6.916;2023-04-24T13:20:42;11.40;55.70
15713;DHT22;7957;51.608;6.916;2023-04-24T13:23:11;11.40;1.00
15713;DHT22;7957;51.608;6.916;2023-04-24T13:25:38;11.30;1.00
15713;DHT22;7957;51.608;6.916;2023-04-24T13:28:07;11.30;1.00
15713;DHT22;7957;51.608;6.916;2023-04-24T13:30:34;11.20;1.00
15713;DHT22;7957;51.608;6.916;2023-04-24T13:33:01;11.20;1.00
15713;DHT22;7957;51.608;6.916;2023-04-24T13:35:28;11.20;1.00
15713;DHT22;7957;51.608;6.916;2023-04-24T13:37:55;11.20;1.00
15713;DHT22;7957;51.608;6.916;2023-04-24T13:40:22;11.20;99.90
15713;DHT22;7957;51.608;6.916;2023-04-24T13:42:49;11.20;99.90
15713;DHT22;7957;51.608;6.916;2023-04-24T13:45:18;11.20;99.90
15713;DHT22;7957;51.608;6.916;2023-04-24T13:47:45;11.30;99.90
15713;DHT22;7957;51.608;6.916;2023-04-24T13:50:13;11.30;99.90
15713;DHT22;7957;51.608;6.916;2023-04-24T13:52:40;11.30;99.90
15713;DHT22;7957;51.608;6.916;2023-04-24T13:55:19;11.40;99.90
15713;DHT22;7957;51.608;6.916;2023-04-24T13:57:46;11.40;99.90
15713;DHT22;7957;51.608;6.916;2023-04-24T14:00:14;11.40;99.90
15713;DHT22;7957;51.608;6.916;2023-04-24T14:02:43;11.40;99.90
15713;DHT22;7957;51.608;6.916;2023-04-24T14:05:10;11.50;99.90
15713;DHT22;7957;51.608;6.916;2023-04-24T14:07:37;11.50;99.90
15713;DHT22;7957;51.608;6.916;2023-04-24T14:10:05;11.50;58.00
15713;DHT22;7957;51.608;6.916;2023-04-24T14:12:32;11.50;1.80
15713;DHT22;7957;51.608;6.916;2023-04-24T14:14:59;11.50;1.00
15713;DHT22;7957;51.608;6.916;2023-04-24T14:17:27;11.40;1.00
15713;DHT22;7957;51.608;6.916;2023-04-24T14:19:56;11.40;1.00
15713;DHT22;7957;51.608;6.916;2023-04-24T14:22:25;11.30;1.00
15713;DHT22;7957;51.608;6.916;2023-04-24T14:24:52;11.30;1.00
15713;DHT22;7957;51.608;6.916;2023-04-24T14:27:19;11.20;1.00
15713;DHT22;7957;51.608;6.916;2023-04-24T14:29:46;11.20;1.00
15713;DHT22;7957;51.608;6.916;2023-04-24T14:32:14;11.10;1.00
15713;DHT22;7957;51.608;6.916;2023-04-24T14:34:41;11.10;1.00
15713;DHT22;7957;51.608;6.916;2023-04-24T14:37:10;11.00;1.00
15713;DHT22;7957;51.608;6.916;2023-04-24T14:39:37;11.00;1.00
15713;DHT22;7957;51.608;6.916;2023-04-24T14:42:04;11.00;23.70
15713;DHT22;7957;51.608;6.916;2023-04-24T14:44:31;11.00;92.20
15713;DHT22;7957;51.608;6.916;2023-04-24T14:46:59;11.00;99.90
15713;DHT22;7957;51.608;6.916;2023-04-24T14:49:26;11.00;99.90
15713;DHT22;7957;51.608;6.916;2023-04-24T14:51:53;11.00;99.90
15713;DHT22;7957;51.608;6.916;2023-04-24T14:54:22;11.10;99.90
15713;DHT22;7957;51.608;6.916;2023-04-24T14:56:56;11.10;99.90
15713;DHT22;7957;51.608;6.916;2023-04-24T14:59:23;11.10;99.90
15713;DHT22;7957;51.608;6.916;2023-04-24T15:01:51;11.10;99.90
15713;DHT22;7957;51.608;6.916;2023-04-24T15:04:21;11.10;99.90
15713;DHT22;7957;51.608;6.916;2023-04-24T15:06:50;11.20;99.90
15713;DHT22;7957;51.608;6.916;2023-04-24T15:09:19;11.20;99.90
15713;DHT22;7957;51.608;6.916;2023-04-24T15:11:49;11.20;99.90
15713;DHT22;7957;51.608;6.916;2023-04-24T15:14:16;11.20;99.90
15713;DHT22;7957;51.608;6.916;2023-04-24T15:16:44;11.20;99.90
15713;DHT22;7957;51.608;6.916;2023-04-24T15:19:14;11.30;99.90
15713;DHT22;7957;51.608;6.916;2023-04-24T15:21:41;11.20;99.90
15713;DHT22;7957;51.608;6.916;2023-04-24T15:24:10;11.20;99.90
15713;DHT22;7957;51.608;6.916;2023-04-24T15:26:37;11.20;99.90
15713;DHT22;7957;51.608;6.916;2023-04-24T15:29:06;11.20;91.10
15713;DHT22;7957;51.608;6.916;2023-04-24T15:31:33;11.10;1.00
15713;DHT22;7957;51.608;6.916;2023-04-24T15:34:05;11.10;1.00
15713;DHT22;7957;51.608;6.916;2023-04-24T15:36:32;11.00;1.00
15713;DHT22;7957;51.608;6.916;2023-04-24T15:39:03;11.00;1.00
15713;DHT22;7957;51.608;6.916;2023-04-24T15:41:30;10.90;1.00
15713;DHT22;7957;51.608;6.916;2023-04-24T15:43:58;10.90;1.00
15713;DHT22;7957;51.608;6.916;2023-04-24T15:46:27;10.90;1.00
15713;DHT22;7957;51.608;6.916;2023-04-24T15:48:54;10.80;1.00
15713;DHT22;7957;51.608;6.916;2023-04-24T15:51:24;10.80;1.00
15713;DHT22;7957;51.608;6.916;2023-04-24T15:53:52;10.70;1.00
15713;DHT22;7957;51.608;6.916;2023-04-24T15:56:19;10.70;1.00
15713;DHT22;7957;51.608;6.916;2023-04-24T15:58:46;10.70;1.00
15713;DHT22;7957;51.608;6.916;2023-04-24T16:01:13;10.70;1.00